createdAt,value
2017-01-19T00:00:37.527Z,1039.9
2017-01-19T00:01:40.503Z,1040
2017-01-19T00:02:43.974Z,1039.9
2017-01-19T00:03:46.946Z,1039.8
2017-01-19T00:04:49.922Z,1039.8
2017-01-19T00:05:52.890Z,1039.9
2017-01-19T00:06:55.859Z,1039.9
2017-01-19T00:07:59.337Z,1039.8
2017-01-19T00:09:02.309Z,1039.8
2017-01-19T00:10:05.286Z,1039.9
2017-01-19T00:11:08.257Z,1039.9
2017-01-19T00:12:11.229Z,1039.8
2017-01-19T00:13:14.728Z,1039.8
2017-01-19T00:14:17.697Z,1039.8
2017-01-19T00:15:20.669Z,1039.8
2017-01-19T00:16:23.641Z,1039.8
2017-01-19T00:17:26.617Z,1039.9
2017-01-19T00:18:30.088Z,1039.9
2017-01-19T00:19:33.064Z,1039.9
2017-01-19T00:20:36.045Z,1039.8
2017-01-19T00:21:39.013Z,1039.9
2017-01-19T00:22:42.484Z,1039.8
2017-01-19T00:23:45.452Z,1039.9
2017-01-19T00:24:48.421Z,1039.9
2017-01-19T00:25:51.392Z,1039.9
2017-01-19T00:26:54.364Z,1039.8
2017-01-19T00:29:00.743Z,1039.8
2017-01-19T00:30:03.711Z,1039.9
2017-01-19T00:31:06.703Z,1039.9
2017-01-19T00:32:10.175Z,1039.9
2017-01-19T00:33:13.143Z,1039.9
2017-01-19T00:34:16.115Z,1039.9
2017-01-19T00:35:19.091Z,1040
2017-01-19T00:36:22.062Z,1040
2017-01-19T00:37:25.538Z,1040
2017-01-19T00:38:28.679Z,1040
2017-01-19T00:39:31.648Z,1040
2017-01-19T00:40:34.643Z,1040.1
2017-01-19T00:41:37.612Z,1040.1
2017-01-19T00:42:40.589Z,1040.1
2017-01-19T00:43:44.066Z,1040.1
2017-01-19T00:44:47.038Z,1040.1
2017-01-19T00:45:50.014Z,1040.1
2017-01-19T00:46:52.989Z,1040.1
2017-01-19T00:47:55.959Z,1040.1
2017-01-19T00:48:59.438Z,1040.1
2017-01-19T00:50:02.410Z,1040.1
2017-01-19T00:51:05.383Z,1040.1
2017-01-19T00:52:08.358Z,1040
2017-01-19T00:53:11.326Z,1040
2017-01-19T00:54:14.802Z,1040
2017-01-19T00:55:17.774Z,1040.1
2017-01-19T00:57:23.652Z,1040.1
2017-01-19T00:58:27.124Z,1040.1
2017-01-19T00:59:30.100Z,1040
2017-01-19T01:00:33.069Z,1040
2017-01-19T01:01:36.052Z,1040
2017-01-19T01:02:39.524Z,1040
2017-01-19T01:03:42.494Z,1040.1
2017-01-19T01:04:45.464Z,1040
2017-01-19T01:05:48.436Z,1040
2017-01-19T01:06:51.404Z,1040
2017-01-19T01:07:54.883Z,1040
2017-01-19T01:08:57.855Z,1040
2017-01-19T01:10:00.827Z,1040.1
2017-01-19T01:11:03.969Z,1040
2017-01-19T01:12:06.952Z,1040
2017-01-19T01:13:09.924Z,1040
2017-01-19T01:14:12.894Z,1040
2017-01-19T01:15:16.371Z,1039.9
2017-01-19T01:16:19.343Z,1039.9
2017-01-19T01:18:25.223Z,1039.9
2017-01-19T01:19:28.701Z,1040
2017-01-19T01:20:31.699Z,1039.9
2017-01-19T01:21:34.668Z,1039.9
2017-01-19T01:22:37.642Z,1040
2017-01-19T01:23:40.618Z,1040
2017-01-19T01:24:44.094Z,1039.9
2017-01-19T01:25:47.061Z,1040
2017-01-19T01:26:50.038Z,1039.9
2017-01-19T01:27:53.017Z,1040
2017-01-19T01:28:55.992Z,1040
2017-01-19T01:29:59.465Z,1040
2017-01-19T01:31:02.437Z,1039.9
2017-01-19T01:32:05.405Z,1039.9
2017-01-19T01:33:08.381Z,1040
2017-01-19T01:34:11.855Z,1039.9
2017-01-19T01:35:14.825Z,1040
2017-01-19T01:36:17.792Z,1039.9
2017-01-19T01:38:24.176Z,1040
2017-01-19T01:39:27.143Z,1039.9
2017-01-19T01:40:30.115Z,1039.9
2017-01-19T01:41:33.120Z,1039.9
2017-01-19T01:42:36.095Z,1039.9
2017-01-19T01:43:39.575Z,1039.9
2017-01-19T01:44:42.548Z,1039.9
2017-01-19T01:45:45.520Z,1039.9
2017-01-19T01:46:48.488Z,1039.9
2017-01-19T01:47:51.465Z,1039.9
2017-01-19T01:48:54.942Z,1039.9
2017-01-19T01:49:57.909Z,1039.9
2017-01-19T01:51:00.881Z,1040
2017-01-19T01:52:03.854Z,1039.9
2017-01-19T01:53:06.826Z,1039.9
2017-01-19T01:54:10.301Z,1039.9
2017-01-19T01:55:13.269Z,1039.9
2017-01-19T01:56:16.239Z,1039.9
2017-01-19T01:57:19.215Z,1040
2017-01-19T01:58:22.186Z,1039.9
2017-01-19T01:59:25.658Z,1039.9
2017-01-19T02:00:28.626Z,1039.9
2017-01-19T02:01:31.599Z,1040
2017-01-19T02:02:34.571Z,1039.9
2017-01-19T02:03:38.054Z,1039.9
2017-01-19T02:04:41.027Z,1039.9
2017-01-19T02:05:44.003Z,1039.9
2017-01-19T02:06:46.971Z,1039.9
2017-01-19T02:07:49.939Z,1039.9
2017-01-19T02:08:53.411Z,1039.9
2017-01-19T02:09:56.383Z,1039.9
2017-01-19T02:10:59.359Z,1039.9
2017-01-19T02:12:02.330Z,1040
2017-01-19T02:13:05.300Z,1039.9
2017-01-19T02:14:08.775Z,1040
2017-01-19T02:15:11.563Z,1039.9
2017-01-19T02:16:14.539Z,1040
2017-01-19T02:17:18.023Z,1040
2017-01-19T02:18:21.020Z,1039.9
2017-01-19T02:19:23.996Z,1040
2017-01-19T02:20:26.968Z,1040
2017-01-19T02:21:29.941Z,1040
2017-01-19T02:22:33.417Z,1040
2017-01-19T02:23:36.388Z,1040
2017-01-19T02:24:39.365Z,1040
2017-01-19T02:25:42.337Z,1040
2017-01-19T02:26:45.390Z,1040
2017-01-19T02:27:48.366Z,1040
2017-01-19T02:28:51.842Z,1040
2017-01-19T02:30:57.721Z,1039.9
2017-01-19T02:32:00.694Z,1039.9
2017-01-19T02:33:04.169Z,1039.9
2017-01-19T02:34:07.143Z,1040
2017-01-19T02:35:10.113Z,1040
2017-01-19T02:36:13.091Z,1039.9
2017-01-19T02:37:16.071Z,1040
2017-01-19T02:38:19.560Z,1040
2017-01-19T02:39:22.532Z,1040
2017-01-19T02:40:25.504Z,1040
2017-01-19T02:41:28.476Z,1040
2017-01-19T02:42:31.445Z,1040
2017-01-19T02:43:34.920Z,1040
2017-01-19T02:44:37.889Z,1039.9
2017-01-19T02:45:40.856Z,1039.9
2017-01-19T02:46:43.825Z,1039.9
2017-01-19T02:47:46.809Z,1039.9
2017-01-19T02:48:50.284Z,1040
2017-01-19T02:49:53.257Z,1040
2017-01-19T02:50:56.230Z,1040
2017-01-19T02:51:59.201Z,1040
2017-01-19T02:53:02.174Z,1039.9
2017-01-19T02:54:05.649Z,1039.9
2017-01-19T02:55:08.618Z,1039.9
2017-01-19T02:56:11.588Z,1039.9
2017-01-19T02:57:14.558Z,1039.9
2017-01-19T02:58:18.037Z,1039.9
2017-01-19T02:59:21.010Z,1039.9
2017-01-19T03:00:23.977Z,1039.9
2017-01-19T03:01:26.946Z,1039.9
2017-01-19T03:02:29.922Z,1039.9
2017-01-19T03:03:33.398Z,1039.9
2017-01-19T03:04:36.370Z,1039.9
2017-01-19T03:05:39.342Z,1039.9
2017-01-19T03:06:42.312Z,1039.9
2017-01-19T03:07:45.286Z,1039.9
2017-01-19T03:08:48.765Z,1039.9
2017-01-19T03:09:51.738Z,1039.9
2017-01-19T03:10:54.705Z,1040
2017-01-19T03:11:57.674Z,1039.9
2017-01-19T03:13:00.650Z,1039.9
2017-01-19T03:14:04.136Z,1039.9
2017-01-19T03:15:07.105Z,1039.8
2017-01-19T03:16:10.078Z,1039.9
2017-01-19T03:17:13.046Z,1039.9
2017-01-19T03:18:16.020Z,1039.8
2017-01-19T03:19:19.502Z,1039.9
2017-01-19T03:20:22.470Z,1039.8
2017-01-19T03:21:25.438Z,1039.8
2017-01-19T03:22:28.405Z,1039.9
2017-01-19T03:23:31.383Z,1039.8
2017-01-19T03:24:34.858Z,1039.9
2017-01-19T03:25:37.834Z,1039.9
2017-01-19T03:26:40.806Z,1039.9
2017-01-19T03:27:43.778Z,1039.8
2017-01-19T03:28:46.750Z,1039.8
2017-01-19T03:29:50.225Z,1039.9
2017-01-19T03:31:56.100Z,1039.9
2017-01-19T03:32:59.069Z,1039.9
2017-01-19T03:34:02.544Z,1039.9
2017-01-19T03:35:05.520Z,1039.9
2017-01-19T03:36:08.488Z,1039.9
2017-01-19T03:37:11.457Z,1039.9
2017-01-19T03:38:14.428Z,1039.8
2017-01-19T03:39:17.900Z,1039.8
2017-01-19T03:40:20.873Z,1039.8
2017-01-19T03:41:23.840Z,1039.8
2017-01-19T03:42:26.814Z,1039.8
2017-01-19T03:43:29.784Z,1039.8
2017-01-19T03:44:33.255Z,1039.8
2017-01-19T03:45:36.227Z,1039.8
2017-01-19T03:46:39.200Z,1039.8
2017-01-19T03:47:42.171Z,1039.8
2017-01-19T03:48:45.167Z,1039.8
2017-01-19T03:49:48.642Z,1039.8
2017-01-19T03:50:51.615Z,1039.8
2017-01-19T03:51:54.583Z,1039.8
2017-01-19T03:52:57.550Z,1039.9
2017-01-19T03:54:00.519Z,1039.9
2017-01-19T03:55:03.990Z,1039.9
2017-01-19T03:56:06.962Z,1039.8
2017-01-19T03:57:09.938Z,1039.8
2017-01-19T03:58:12.905Z,1039.8
2017-01-19T03:59:15.870Z,1039.8
2017-01-19T04:00:19.341Z,1039.8
2017-01-19T04:01:22.309Z,1039.8
2017-01-19T04:02:25.278Z,1039.7
2017-01-19T04:03:28.253Z,1039.7
2017-01-19T04:04:31.226Z,1039.7
2017-01-19T04:05:34.696Z,1039.8
2017-01-19T04:06:37.665Z,1039.7
2017-01-19T04:07:40.632Z,1039.7
2017-01-19T04:08:43.605Z,1039.7
2017-01-19T04:09:46.573Z,1039.7
2017-01-19T04:10:50.047Z,1039.7
2017-01-19T04:11:53.020Z,1039.7
2017-01-19T04:12:55.992Z,1039.7
2017-01-19T04:13:58.960Z,1039.7
2017-01-19T04:15:01.932Z,1039.7
2017-01-19T04:16:05.410Z,1039.7
2017-01-19T04:17:08.379Z,1039.7
2017-01-19T04:18:11.356Z,1039.7
2017-01-19T04:19:14.352Z,1039.7
2017-01-19T04:20:17.328Z,1039.7
2017-01-19T04:21:20.803Z,1039.7
2017-01-19T04:22:23.775Z,1039.7
2017-01-19T04:23:26.744Z,1039.7
2017-01-19T04:24:29.718Z,1039.7
2017-01-19T04:25:32.687Z,1039.7
2017-01-19T04:26:36.157Z,1039.7
2017-01-19T04:27:39.131Z,1039.7
2017-01-19T04:29:45.014Z,1039.6
2017-01-19T04:30:48.485Z,1039.7
2017-01-19T04:31:51.453Z,1039.7
2017-01-19T04:32:54.421Z,1039.6
2017-01-19T04:33:57.389Z,1039.6
2017-01-19T04:35:00.361Z,1039.6
2017-01-19T04:36:03.836Z,1039.5
2017-01-19T04:37:06.808Z,1039.5
2017-01-19T04:38:09.777Z,1039.5
2017-01-19T04:39:12.748Z,1039.6
2017-01-19T04:40:15.719Z,1039.5
2017-01-19T04:41:19.194Z,1039.5
2017-01-19T04:42:22.159Z,1039.5
2017-01-19T04:43:25.127Z,1039.5
2017-01-19T04:44:28.094Z,1039.5
2017-01-19T04:45:31.060Z,1039.5
2017-01-19T04:46:34.531Z,1039.5
2017-01-19T04:47:37.499Z,1039.5
2017-01-19T04:48:40.466Z,1039.5
2017-01-19T04:49:43.439Z,1039.4
2017-01-19T04:50:46.415Z,1039.5
2017-01-19T04:51:49.887Z,1039.5
2017-01-19T04:52:52.857Z,1039.5
2017-01-19T04:53:55.827Z,1039.5
2017-01-19T04:54:58.801Z,1039.6
2017-01-19T04:56:01.769Z,1039.5
2017-01-19T04:57:05.248Z,1039.5
2017-01-19T04:58:08.214Z,1039.5
2017-01-19T04:59:11.180Z,1039.5
2017-01-19T05:00:14.153Z,1039.5
2017-01-19T05:01:17.122Z,1039.5
2017-01-19T05:02:20.592Z,1039.4
2017-01-19T05:03:23.561Z,1039.5
2017-01-19T05:04:26.529Z,1039.4
2017-01-19T05:05:29.500Z,1039.4
2017-01-19T05:06:32.470Z,1039.4
2017-01-19T05:07:35.942Z,1039.5
2017-01-19T05:08:38.914Z,1039.4
2017-01-19T05:09:41.886Z,1039.5
2017-01-19T05:10:44.853Z,1039.4
2017-01-19T05:11:47.830Z,1039.4
2017-01-19T05:12:51.300Z,1039.4
2017-01-19T05:13:54.271Z,1039.4
2017-01-19T05:14:57.241Z,1039.4
2017-01-19T05:16:00.207Z,1039.4
2017-01-19T05:17:03.677Z,1039.4
2017-01-19T05:18:06.650Z,1039.4
2017-01-19T05:19:09.619Z,1039.4
2017-01-19T05:20:12.592Z,1039.4
2017-01-19T05:21:15.560Z,1039.5
2017-01-19T05:22:19.035Z,1039.5
2017-01-19T05:23:22.002Z,1039.5
2017-01-19T05:24:24.972Z,1039.5
2017-01-19T05:25:27.942Z,1039.5
2017-01-19T05:26:30.908Z,1039.5
2017-01-19T05:27:34.381Z,1039.4
2017-01-19T05:28:37.356Z,1039.5
2017-01-19T05:29:40.326Z,1039.5
2017-01-19T05:30:43.294Z,1039.4
2017-01-19T05:31:46.271Z,1039.5
2017-01-19T05:32:49.742Z,1039.4
2017-01-19T05:33:52.714Z,1039.4
2017-01-19T05:34:55.688Z,1039.4
2017-01-19T05:35:58.658Z,1039.4
2017-01-19T05:37:01.626Z,1039.4
2017-01-19T05:38:05.100Z,1039.4
2017-01-19T05:39:08.069Z,1039.4
2017-01-19T05:40:11.040Z,1039.5
2017-01-19T05:41:14.009Z,1039.4
2017-01-19T05:42:16.981Z,1039.5
2017-01-19T05:43:20.459Z,1039.4
2017-01-19T05:44:23.431Z,1039.4
2017-01-19T05:45:26.398Z,1039.5
2017-01-19T05:46:29.364Z,1039.5
2017-01-19T05:47:32.335Z,1039.4
2017-01-19T05:48:35.807Z,1039.4
2017-01-19T05:49:38.774Z,1039.5
2017-01-19T05:50:41.743Z,1039.4
2017-01-19T05:51:44.714Z,1039.5
2017-01-19T05:52:47.683Z,1039.5
2017-01-19T05:53:51.153Z,1039.4
2017-01-19T05:54:54.126Z,1039.4
2017-01-19T05:55:57.089Z,1039.4
2017-01-19T05:57:00.058Z,1039.3
2017-01-19T05:58:03.025Z,1039.4
2017-01-19T05:59:06.496Z,1039.4
2017-01-19T06:00:09.464Z,1039.4
2017-01-19T06:01:12.432Z,1039.4
2017-01-19T06:02:15.400Z,1039.4
2017-01-19T06:03:18.371Z,1039.4
2017-01-19T06:04:21.843Z,1039.4
2017-01-19T06:05:24.811Z,1039.4
2017-01-19T06:06:27.779Z,1039.3
2017-01-19T06:07:30.750Z,1039.4
2017-01-19T06:08:33.719Z,1039.4
2017-01-19T06:09:37.194Z,1039.3
2017-01-19T06:10:40.169Z,1039.3
2017-01-19T06:11:43.138Z,1039.4
2017-01-19T06:12:46.109Z,1039.3
2017-01-19T06:13:49.074Z,1039.4
2017-01-19T06:14:52.553Z,1039.4
2017-01-19T06:15:55.521Z,1039.4
2017-01-19T06:16:58.489Z,1039.4
2017-01-19T06:18:01.457Z,1039.3
2017-01-19T06:19:04.445Z,1039.4
2017-01-19T06:20:07.945Z,1039.4
2017-01-19T06:21:10.913Z,1039.3
2017-01-19T06:22:13.881Z,1039.3
2017-01-19T06:23:16.853Z,1039.3
2017-01-19T06:24:19.837Z,1039.3
2017-01-19T06:25:23.322Z,1039.4
2017-01-19T06:26:26.294Z,1039.3
2017-01-19T06:27:29.265Z,1039.3
2017-01-19T06:28:32.231Z,1039.3
2017-01-19T06:30:38.607Z,1039.3
2017-01-19T06:31:41.605Z,1039.4
2017-01-19T06:33:47.478Z,1039.3
2017-01-19T06:34:50.951Z,1039.4
2017-01-19T06:35:53.917Z,1039.3
2017-01-19T06:36:56.885Z,1039.4
2017-01-19T06:37:59.855Z,1039.4
2017-01-19T06:39:02.823Z,1039.4
2017-01-19T06:40:06.297Z,1039.4
2017-01-19T06:41:09.272Z,1039.5
2017-01-19T06:42:12.248Z,1039.5
2017-01-19T06:43:15.215Z,1039.4
2017-01-19T06:44:18.181Z,1039.4
2017-01-19T06:45:21.653Z,1039.4
2017-01-19T06:46:24.621Z,1039.4
2017-01-19T06:47:27.591Z,1039.5
2017-01-19T06:48:30.561Z,1039.4
2017-01-19T06:49:33.528Z,1039.5
2017-01-19T06:50:37.006Z,1039.5
2017-01-19T06:51:39.974Z,1039.5
2017-01-19T06:52:42.947Z,1039.5
2017-01-19T06:53:45.918Z,1039.6
2017-01-19T06:54:49.390Z,1039.6
2017-01-19T06:55:52.385Z,1039.6
2017-01-19T06:56:55.356Z,1039.6
2017-01-19T06:57:58.325Z,1039.6
2017-01-19T06:59:01.300Z,1039.6
2017-01-19T07:00:04.271Z,1039.6
2017-01-19T07:01:07.748Z,1039.6
2017-01-19T07:02:10.723Z,1039.7
2017-01-19T07:03:13.691Z,1039.7
2017-01-19T07:04:16.663Z,1039.6
2017-01-19T07:05:20.134Z,1039.7
2017-01-19T07:06:23.103Z,1039.6
2017-01-19T07:07:26.077Z,1039.6
2017-01-19T07:08:29.045Z,1039.6
2017-01-19T07:09:32.033Z,1039.6
2017-01-19T07:10:35.504Z,1039.6
2017-01-19T07:11:38.477Z,1039.6
2017-01-19T07:12:41.449Z,1039.6
2017-01-19T07:13:44.424Z,1039.6
2017-01-19T07:14:47.392Z,1039.6
2017-01-19T07:15:50.871Z,1039.6
2017-01-19T07:16:53.839Z,1039.6
2017-01-19T07:17:56.811Z,1039.6
2017-01-19T07:18:59.783Z,1039.6
2017-01-19T07:20:02.755Z,1039.7
2017-01-19T07:21:06.230Z,1039.7
2017-01-19T07:22:09.210Z,1039.7
2017-01-19T07:23:12.178Z,1039.7
2017-01-19T07:24:15.144Z,1039.7
2017-01-19T07:25:18.113Z,1039.7
2017-01-19T07:26:21.587Z,1039.7
2017-01-19T07:27:24.552Z,1039.7
2017-01-19T07:28:27.524Z,1039.7
2017-01-19T07:29:30.495Z,1039.7
2017-01-19T07:30:33.465Z,1039.8
2017-01-19T07:31:36.939Z,1039.8
2017-01-19T07:32:39.907Z,1039.8
2017-01-19T07:33:42.875Z,1039.7
2017-01-19T07:34:45.846Z,1039.8
2017-01-19T07:35:48.814Z,1039.8
2017-01-19T07:36:52.289Z,1039.8
2017-01-19T07:37:55.257Z,1039.8
2017-01-19T07:38:58.228Z,1039.8
2017-01-19T07:40:01.196Z,1039.9
2017-01-19T07:41:04.200Z,1039.9
2017-01-19T07:42:07.675Z,1039.9
2017-01-19T07:43:10.650Z,1039.9
2017-01-19T07:44:13.618Z,1039.9
2017-01-19T07:45:16.590Z,1039.9
2017-01-19T07:46:19.559Z,1039.9
2017-01-19T07:47:23.029Z,1039.9
2017-01-19T07:48:26.003Z,1039.9
2017-01-19T07:49:28.968Z,1039.9
2017-01-19T07:50:31.940Z,1039.9
2017-01-19T07:51:34.907Z,1039.8
2017-01-19T07:52:38.378Z,1039.9
2017-01-19T07:53:41.345Z,1039.8
2017-01-19T07:54:44.318Z,1039.8
2017-01-19T07:55:47.290Z,1039.9
2017-01-19T07:56:50.765Z,1039.9
2017-01-19T07:57:53.732Z,1039.9
2017-01-19T07:58:56.705Z,1039.9
2017-01-19T07:59:59.677Z,1039.9
2017-01-19T08:01:02.648Z,1039.9
2017-01-19T08:02:06.126Z,1039.9
2017-01-19T08:03:09.096Z,1039.8
2017-01-19T08:04:12.071Z,1039.9
2017-01-19T08:05:15.039Z,1039.8
2017-01-19T08:06:18.015Z,1039.9
2017-01-19T08:07:21.486Z,1039.8
2017-01-19T08:08:24.468Z,1039.9
2017-01-19T08:09:27.442Z,1039.9
2017-01-19T08:10:30.409Z,1039.8
2017-01-19T08:11:33.376Z,1039.9
2017-01-19T08:12:36.851Z,1039.9
2017-01-19T08:13:39.820Z,1039.9
2017-01-19T08:14:42.795Z,1039.9
2017-01-19T08:15:45.763Z,1039.9
2017-01-19T08:16:48.731Z,1039.9
2017-01-19T08:17:52.230Z,1039.9
2017-01-19T08:18:55.198Z,1039.9
2017-01-19T08:19:58.170Z,1040
2017-01-19T08:21:01.141Z,1040
2017-01-19T08:22:04.138Z,1039.9
2017-01-19T08:23:07.621Z,1039.9
2017-01-19T08:24:10.593Z,1040
2017-01-19T08:25:13.565Z,1039.9
2017-01-19T08:26:16.537Z,1040
2017-01-19T08:27:19.509Z,1040
2017-01-19T08:28:22.995Z,1040
2017-01-19T08:29:25.963Z,1040
2017-01-19T08:30:28.939Z,1040.1
2017-01-19T08:31:31.911Z,1040
2017-01-19T08:32:34.883Z,1040.1
2017-01-19T08:33:38.362Z,1040.1
2017-01-19T08:34:41.334Z,1040.1
2017-01-19T08:35:44.302Z,1040.1
2017-01-19T08:36:47.269Z,1040
2017-01-19T08:37:50.273Z,1040
2017-01-19T08:38:53.745Z,1040
2017-01-19T08:39:56.721Z,1039.9
2017-01-19T08:40:59.695Z,1040
2017-01-19T08:42:02.668Z,1040
2017-01-19T08:43:05.641Z,1039.9
2017-01-19T08:44:09.122Z,1040
2017-01-19T08:45:12.095Z,1040
2017-01-19T08:46:15.068Z,1040
2017-01-19T08:47:18.035Z,1040
2017-01-19T08:48:21.002Z,1039.9
2017-01-19T08:49:24.486Z,1039.9
2017-01-19T08:51:30.363Z,1039.9
2017-01-19T08:52:33.337Z,1039.9
2017-01-19T08:53:36.309Z,1039.9
2017-01-19T08:54:39.784Z,1039.9
2017-01-19T08:55:42.758Z,1039.9
2017-01-19T08:56:45.728Z,1039.8
2017-01-19T08:57:48.696Z,1039.8
2017-01-19T08:58:51.665Z,1039.8
2017-01-19T08:59:55.136Z,1039.8
2017-01-19T09:00:58.109Z,1039.9
2017-01-19T09:02:01.079Z,1039.9
2017-01-19T09:03:04.055Z,1039.9
2017-01-19T09:04:07.526Z,1039.9
2017-01-19T09:05:10.501Z,1039.9
2017-01-19T09:06:13.470Z,1039.9
2017-01-19T09:07:16.440Z,1039.9
2017-01-19T09:08:19.405Z,1039.9
2017-01-19T09:09:22.880Z,1040
2017-01-19T09:10:25.848Z,1039.9
2017-01-19T09:11:28.816Z,1040
2017-01-19T09:12:31.788Z,1040
2017-01-19T09:14:38.170Z,1040
2017-01-19T09:15:41.138Z,1040.1
2017-01-19T09:16:44.106Z,1040.1
2017-01-19T09:17:47.074Z,1040.1
2017-01-19T09:18:50.044Z,1040.2
2017-01-19T09:19:53.517Z,1040.2
2017-01-19T09:20:56.653Z,1040.4
2017-01-19T09:21:59.634Z,1040.4
2017-01-19T09:23:02.606Z,1040.4
2017-01-19T09:24:05.581Z,1040.4
2017-01-19T09:25:08.553Z,1040.4
2017-01-19T09:26:11.527Z,1040.4
2017-01-19T09:27:14.999Z,1040.4
2017-01-19T09:28:17.971Z,1040.4
2017-01-19T09:29:20.939Z,1040.4
2017-01-19T09:30:23.906Z,1040.4
2017-01-19T09:31:26.874Z,1040.4
2017-01-19T09:32:30.349Z,1040.4
2017-01-19T09:33:33.321Z,1040.4
2017-01-19T09:34:36.289Z,1040.4
2017-01-19T09:35:39.256Z,1040.4
2017-01-19T09:36:42.228Z,1040.4
2017-01-19T09:37:45.700Z,1040.4
2017-01-19T09:38:48.700Z,1040.4
2017-01-19T09:39:51.672Z,1040.5
2017-01-19T09:40:54.645Z,1040.5
2017-01-19T09:41:57.623Z,1040.4
2017-01-19T09:43:01.111Z,1040.5
2017-01-19T09:44:03.759Z,1040.4
2017-01-19T09:45:07.237Z,1040.4
2017-01-19T09:46:10.205Z,1040.4
2017-01-19T09:47:13.183Z,1040.4
2017-01-19T09:48:16.150Z,1040.4
2017-01-19T09:49:19.126Z,1040.2
2017-01-19T09:50:22.597Z,1040.2
2017-01-19T09:51:25.569Z,1040.2
2017-01-19T09:52:28.537Z,1040.2
2017-01-19T09:53:31.512Z,1040.2
2017-01-19T09:54:34.489Z,1040.2
2017-01-19T09:55:37.964Z,1040.2
2017-01-19T09:56:40.939Z,1040.1
2017-01-19T09:57:43.915Z,1040.1
2017-01-19T09:58:46.885Z,1040.1
2017-01-19T09:59:49.855Z,1040.1
2017-01-19T10:00:53.329Z,1040.1
2017-01-19T10:01:56.298Z,1040.1
2017-01-19T10:02:59.294Z,1040.2
2017-01-19T10:04:02.262Z,1040.1
2017-01-19T10:05:05.237Z,1040.1
2017-01-19T10:06:08.708Z,1040.1
2017-01-19T10:07:11.680Z,1040.1
2017-01-19T10:08:14.652Z,1040.1
2017-01-19T10:09:17.623Z,1040.1
2017-01-19T10:10:20.591Z,1040
2017-01-19T10:11:24.064Z,1040.1
2017-01-19T10:12:27.030Z,1040.1
2017-01-19T10:13:29.998Z,1040.1
2017-01-19T10:14:32.969Z,1040.1
2017-01-19T10:16:39.353Z,1040.1
2017-01-19T10:17:42.325Z,1040.1
2017-01-19T10:18:45.304Z,1040.1
2017-01-19T10:19:48.272Z,1040.1
2017-01-19T10:20:51.245Z,1040.1
2017-01-19T10:21:54.724Z,1040.1
2017-01-19T10:22:57.695Z,1040
2017-01-19T10:24:00.663Z,1040
2017-01-19T10:25:03.639Z,1040
2017-01-19T10:26:06.627Z,1040
2017-01-19T10:27:10.102Z,1040
2017-01-19T10:28:13.073Z,1040
2017-01-19T10:29:16.044Z,1040
2017-01-19T10:30:19.012Z,1039.9
2017-01-19T10:31:21.986Z,1039.9
2017-01-19T10:32:25.458Z,1039.9
2017-01-19T10:33:28.428Z,1039.9
2017-01-19T10:34:31.396Z,1039.9
2017-01-19T10:35:34.364Z,1040
2017-01-19T10:36:37.331Z,1040
2017-01-19T10:37:40.807Z,1040
2017-01-19T10:38:43.779Z,1039.9
2017-01-19T10:41:53.064Z,1039.9
2017-01-19T10:42:56.036Z,1039.9
2017-01-19T10:43:59.004Z,1039.9
2017-01-19T10:45:01.972Z,1039.8
2017-01-19T10:46:04.947Z,1039.9
2017-01-19T10:47:08.418Z,1039.9
2017-01-19T10:48:11.389Z,1039.8
2017-01-19T10:49:14.359Z,1039.8
2017-01-19T10:50:17.329Z,1039.8
2017-01-19T10:51:20.294Z,1039.7
2017-01-19T10:52:23.773Z,1039.8
2017-01-19T10:54:29.649Z,1039.9
2017-01-19T10:55:32.620Z,1039.8
2017-01-19T10:56:36.096Z,1039.8
2017-01-19T10:57:39.066Z,1039.8
2017-01-19T10:58:42.035Z,1039.8
2017-01-19T10:59:45.007Z,1039.8
2017-01-19T11:00:47.976Z,1039.8
2017-01-19T11:01:51.472Z,1039.8
2017-01-19T11:02:54.437Z,1039.8
2017-01-19T11:03:57.409Z,1039.7
2017-01-19T11:05:00.380Z,1039.8
2017-01-19T11:06:03.349Z,1039.8
2017-01-19T11:07:06.821Z,1039.7
2017-01-19T11:08:09.796Z,1039.8
2017-01-19T11:09:12.768Z,1039.8
2017-01-19T11:10:15.744Z,1039.7
2017-01-19T11:11:18.711Z,1039.8
2017-01-19T11:12:21.687Z,1039.7
2017-01-19T11:13:25.163Z,1039.8
2017-01-19T11:14:28.130Z,1039.8
2017-01-19T11:15:31.098Z,1039.7
2017-01-19T11:16:34.070Z,1039.7
2017-01-19T11:18:40.461Z,1039.7
2017-01-19T11:19:43.428Z,1039.7
2017-01-19T11:20:46.400Z,1039.7
2017-01-19T11:21:49.376Z,1039.7
2017-01-19T11:22:52.347Z,1039.7
2017-01-19T11:23:55.818Z,1039.7
2017-01-19T11:24:58.787Z,1039.6
2017-01-19T11:26:01.755Z,1039.6
2017-01-19T11:27:04.732Z,1039.6
2017-01-19T11:28:07.698Z,1039.5
2017-01-19T11:29:11.169Z,1039.5
2017-01-19T11:30:14.142Z,1039.5
2017-01-19T11:31:17.110Z,1039.5
2017-01-19T11:32:20.078Z,1039.5
2017-01-19T11:33:23.018Z,1039.5
2017-01-19T11:34:26.464Z,1039.4
2017-01-19T11:35:29.409Z,1039.4
2017-01-19T11:36:32.380Z,1039.4
2017-01-19T11:37:35.326Z,1039.3
2017-01-19T11:38:38.779Z,1039.3
2017-01-19T11:39:41.725Z,1039.3
2017-01-19T11:40:44.669Z,1039.3
2017-01-19T11:41:47.674Z,1039.3
2017-01-19T11:42:50.622Z,1039.3
2017-01-19T11:43:54.068Z,1039.3
2017-01-19T11:44:57.036Z,1039.3
2017-01-19T11:45:59.984Z,1039.3
2017-01-19T11:47:02.927Z,1039.3
2017-01-19T11:48:06.375Z,1039.3
2017-01-19T11:49:09.323Z,1039.3
2017-01-19T11:50:12.289Z,1039.4
2017-01-19T11:51:15.237Z,1039.3
2017-01-19T11:52:18.186Z,1039.4
2017-01-19T11:53:21.636Z,1039.3
2017-01-19T11:54:24.584Z,1039.3
2017-01-19T11:55:27.525Z,1039.2
2017-01-19T11:56:30.481Z,1039.3
2017-01-19T11:57:33.930Z,1039.3
2017-01-19T11:58:36.875Z,1039.3
2017-01-19T11:59:39.822Z,1039.3
2017-01-19T12:00:42.767Z,1039.3
2017-01-19T12:01:46.254Z,1039.3
2017-01-19T12:02:49.201Z,1039.3
2017-01-19T12:03:52.144Z,1039.4
2017-01-19T12:04:55.160Z,1039.4
2017-01-19T12:05:58.099Z,1039.4
2017-01-19T12:07:01.547Z,1039.3
2017-01-19T12:08:04.156Z,1039.3
2017-01-19T12:09:07.671Z,1039.3
2017-01-19T12:10:10.615Z,1039.3
2017-01-19T12:11:13.556Z,1039.3
2017-01-19T12:12:16.502Z,1039.3
2017-01-19T12:13:19.953Z,1039.3
2017-01-19T12:14:22.904Z,1039.3
2017-01-19T12:15:25.848Z,1039.3
2017-01-19T12:16:28.852Z,1039.2
2017-01-19T12:17:31.800Z,1039.3
2017-01-19T12:18:35.242Z,1039.3
2017-01-19T12:20:41.089Z,1039.3
2017-01-19T12:21:44.033Z,1039.2
2017-01-19T12:22:47.480Z,1039.2
2017-01-19T12:23:50.423Z,1039.3
2017-01-19T12:24:53.371Z,1039.3
2017-01-19T12:25:56.311Z,1039.3
2017-01-19T12:26:59.760Z,1039.3
2017-01-19T12:28:02.710Z,1039.3
2017-01-19T12:29:05.657Z,1039.3
2017-01-19T12:30:08.661Z,1039.3
2017-01-19T12:31:11.605Z,1039.2
2017-01-19T12:32:15.068Z,1039.2
2017-01-19T12:33:18.018Z,1039.1
2017-01-19T12:34:20.964Z,1039.2
2017-01-19T12:35:23.905Z,1039.1
2017-01-19T12:36:27.353Z,1039.1
2017-01-19T12:37:30.296Z,1039.1
2017-01-19T12:38:33.239Z,1039.1
2017-01-19T12:39:36.183Z,1039
2017-01-19T12:40:39.629Z,1039
2017-01-19T12:41:42.579Z,1039.1
2017-01-19T12:42:45.525Z,1039.1
2017-01-19T12:43:48.467Z,1039
2017-01-19T12:44:51.919Z,1039.1
2017-01-19T12:45:54.865Z,1039
2017-01-19T12:46:57.812Z,1039
2017-01-19T12:48:00.755Z,1039
2017-01-19T12:49:04.203Z,1039
2017-01-19T12:50:07.146Z,1039.1
2017-01-19T12:51:10.085Z,1039.1
2017-01-19T12:52:13.038Z,1039.1
2017-01-19T12:53:15.986Z,1039.1
2017-01-19T12:54:19.435Z,1039
2017-01-19T12:55:22.379Z,1039.1
2017-01-19T12:56:25.324Z,1039.1
2017-01-19T12:57:28.270Z,1039.1
2017-01-19T12:58:31.717Z,1039
2017-01-19T12:59:34.655Z,1039
2017-01-19T13:00:37.603Z,1039.1
2017-01-19T13:01:40.551Z,1039
2017-01-19T13:02:44.027Z,1039
2017-01-19T13:03:46.978Z,1039
2017-01-19T13:04:49.916Z,1039
2017-01-19T13:05:52.861Z,1039
2017-01-19T13:06:56.335Z,1039
2017-01-19T13:07:59.280Z,1038.9
2017-01-19T13:09:02.226Z,1039
2017-01-19T13:10:05.165Z,1038.9
2017-01-19T13:11:08.109Z,1038.9
2017-01-19T13:12:11.553Z,1038.9
2017-01-19T13:13:14.496Z,1038.9
2017-01-19T13:14:17.444Z,1038.9
2017-01-19T13:15:20.389Z,1038.8
2017-01-19T13:16:23.834Z,1038.8
2017-01-19T13:17:26.778Z,1038.8
2017-01-19T13:18:29.729Z,1038.8
2017-01-19T13:19:32.672Z,1038.8
2017-01-19T13:20:36.123Z,1038.9
2017-01-19T13:22:41.973Z,1038.8
2017-01-19T13:23:44.919Z,1038.9
2017-01-19T13:24:48.373Z,1038.8
2017-01-19T13:25:51.315Z,1038.8
2017-01-19T13:26:54.481Z,1038.9
2017-01-19T13:27:57.451Z,1038.8
2017-01-19T13:29:00.397Z,1038.8
2017-01-19T13:30:03.339Z,1038.8
2017-01-19T13:31:06.459Z,1038.8
2017-01-19T13:32:09.584Z,1038.8
2017-01-19T13:33:12.526Z,1038.9